Private Wetterstation Sandau
Wetterdaten: Mittwoch, 30.01.2013
Datum Zeit Temp. A. Feuchte A. Luftdruck Regen Wind Richtung Richtung Taupunkt Windchill
30.01.2013 00:01 5,1 C 94 % 1004,9 hPa 0,0 l/m 5,0 km/h (1 Bft) S-SW 202 4,2 C 4,2 C
30.01.2013 00:06 5,2 C 94 % 1004,8 hPa 0,0 l/m 10,1 km/h (2 Bft) S 180 4,3 C 2,9 C
30.01.2013 00:11 5,3 C 94 % 1004,6 hPa 0,5 l/m 6,8 km/h (2 Bft) S 180 4,4 C 3,8 C
30.01.2013 00:16 5,3 C 94 % 1004,6 hPa 0,0 l/m 5,4 km/h (1 Bft) SW 225 4,4 C 4,3 C
30.01.2013 00:21 5,4 C 94 % 1004,6 hPa 0,0 l/m 8,6 km/h (2 Bft) S 180 4,5 C 3,5 C
30.01.2013 00:26 5,4 C 94 % 1004,6 hPa 0,5 l/m 6,8 km/h (2 Bft) S-SO 157 4,5 C 3,9 C
30.01.2013 00:31 5,4 C 94 % 1004,5 hPa 0,0 l/m 8,3 km/h (2 Bft) S-SW 202 4,5 C 3,5 C
30.01.2013 00:36 5,4 C 94 % 1004,6 hPa 0,0 l/m 5,0 km/h (1 Bft) SW 225 4,5 C 4,5 C
30.01.2013 00:41 5,5 C 94 % 1004,3 hPa 0,0 l/m 11,5 km/h (2 Bft) S-SW 202 4,6 C 3,0 C
30.01.2013 00:46 5,5 C 94 % 1004,4 hPa 0,0 l/m 12,6 km/h (3 Bft) S 180 4,6 C 2,8 C
30.01.2013 00:51 5,6 C 94 % 1004,4 hPa 0,0 l/m 6,5 km/h (2 Bft) SO 135 4,7 C 4,3 C
30.01.2013 00:56 5,7 C 94 % 1004,2 hPa 0,5 l/m 7,6 km/h (2 Bft) SW 225 4,8 C 4,1 C
30.01.2013 01:01 5,7 C 94 % 1004,2 hPa 0,0 l/m 12,2 km/h (2 Bft) S-SW 202 4,8 C 3,1 C
30.01.2013 01:06 5,8 C 94 % 1004,2 hPa 0,0 l/m 5,0 km/h (1 Bft) SW 225 4,9 C 5,0 C
30.01.2013 01:11 5,8 C 94 % 1004,2 hPa 0,0 l/m 6,5 km/h (2 Bft) SO 135 4,9 C 4,5 C
30.01.2013 01:16 5,8 C 94 % 1004,1 hPa 0,5 l/m 7,6 km/h (2 Bft) S-SW 202 4,9 C 4,2 C
30.01.2013 01:21 5,8 C 94 % 1003,8 hPa 0,0 l/m 9,4 km/h (2 Bft) S 180 4,9 C 3,7 C
30.01.2013 01:26 5,9 C 94 % 1003,8 hPa 0,0 l/m 11,2 km/h (2 Bft) W-SW 247 5,0 C 3,5 C
30.01.2013 01:31 6,1 C 94 % 1003,9 hPa 0,0 l/m 9,0 km/h (2 Bft) S-SW 202 5,2 C 4,2 C
30.01.2013 01:36 6,3 C 94 % 1003,8 hPa 0,0 l/m 10,1 km/h (2 Bft) SW 225 5,4 C 4,2 C
30.01.2013 01:41 6,4 C 95 % 1003,8 hPa 0,0 l/m 13,0 km/h (3 Bft) W-SW 247 5,7 C 3,8 C
30.01.2013 01:46 6,5 C 95 % 1003,7 hPa 0,0 l/m 11,2 km/h (2 Bft) SW 225 5,8 C 4,2 C
30.01.2013 01:51 6,6 C 95 % 1003,7 hPa 0,0 l/m 7,6 km/h (2 Bft) S 180 5,9 C 5,1 C
30.01.2013 01:56 6,7 C 95 % 1003,6 hPa 0,0 l/m 5,4 km/h (1 Bft) S 180 6,0 C 5,9 C
30.01.2013 02:01 6,7 C 95 % 1003,6 hPa 0,0 l/m 7,2 km/h (2 Bft) W-SW 247 6,0 C 5,3 C
30.01.2013 02:06 6,6 C 95 % 1003,3 hPa 0,5 l/m 6,1 km/h (2 Bft) S-SW 202 5,9 C 5,5 C
30.01.2013 02:11 6,6 C 95 % 1003,4 hPa 0,0 l/m 12,2 km/h (2 Bft) SW 225 5,9 C 4,2 C
30.01.2013 02:16 6,6 C 95 % 1003,5 hPa 0,0 l/m 11,5 km/h (2 Bft) W-SW 247 5,9 C 4,3 C
30.01.2013 02:21 6,8 C 95 % 1003,5 hPa 0,0 l/m 15,5 km/h (3 Bft) S-SW 202 6,1 C 3,9 C
30.01.2013 02:26 6,8 C 95 % 1003,4 hPa 0,0 l/m 13,3 km/h (3 Bft) S-SW 202 6,1 C 4,2 C
30.01.2013 02:31 6,9 C 95 % 1003,4 hPa 0,0 l/m 15,1 km/h (3 Bft) SW 225 6,2 C 4,1 C
30.01.2013 02:36 6,9 C 95 % 1003,3 hPa 0,5 l/m 13,3 km/h (3 Bft) S-SW 202 6,2 C 4,3 C
30.01.2013 02:41 7,0 C 95 % 1003,3 hPa 0,0 l/m 9,0 km/h (2 Bft) S-SW 202 6,3 C 5,3 C
30.01.2013 02:46 7,1 C 95 % 1003,1 hPa 0,0 l/m 14,4 km/h (3 Bft) SW 225 6,4 C 4,4 C
30.01.2013 02:51 7,2 C 95 % 1003,1 hPa 0,0 l/m 9,7 km/h (2 Bft) SW 225 6,5 C 5,3 C
30.01.2013 02:56 7,3 C 95 % 1003,2 hPa 0,0 l/m 14,4 km/h (3 Bft) SW 225 6,6 C 4,7 C
30.01.2013 03:01 7,4 C 95 % 1002,9 hPa 0,0 l/m 13,7 km/h (3 Bft) W-SW 247 6,7 C 4,9 C
30.01.2013 03:06 7,6 C 95 % 1002,9 hPa 0,0 l/m 10,8 km/h (2 Bft) W-SW 247 6,9 C 5,6 C
30.01.2013 03:11 7,9 C 95 % 1002,8 hPa 0,0 l/m 14,8 km/h (3 Bft) W 270 7,1 C 5,4 C
30.01.2013 03:16 8,1 C 95 % 1002,9 hPa 0,0 l/m 17,6 km/h (3 Bft) W-SW 247 7,3 C 5,2 C
30.01.2013 03:21 8,3 C 95 % 1003,0 hPa 0,0 l/m 15,1 km/h (3 Bft) SW 225 7,5 C 5,8 C
30.01.2013 03:26 8,4 C 95 % 1003,0 hPa 0,0 l/m 12,6 km/h (3 Bft) W 270 7,6 C 6,3 C
30.01.2013 03:31 8,5 C 95 % 1003,0 hPa 0,0 l/m 24,1 km/h (4 Bft) W 270 7,7 C 5,1 C
30.01.2013 03:36 8,6 C 95 % 1003,0 hPa 0,0 l/m 16,6 km/h (3 Bft) W-SW 247 7,8 C 6,0 C
30.01.2013 03:41 8,7 C 95 % 1003,0 hPa 0,0 l/m 13,7 km/h (3 Bft) W-SW 247 7,9 C 6,5 C
30.01.2013 03:46 8,8 C 95 % 1002,9 hPa 0,0 l/m 18,0 km/h (3 Bft) SW 225 8,0 C 6,1 C
30.01.2013 03:51 8,9 C 96 % 1002,9 hPa 0,0 l/m 29,2 km/h (5 Bft) W-SW 247 8,3 C 5,2 C
30.01.2013 03:56 8,9 C 96 % 1002,9 hPa 0,0 l/m 21,6 km/h (4 Bft) W-SW 247 8,3 C 5,8 C
30.01.2013 04:01 9,0 C 96 % 1002,8 hPa 0,0 l/m 13,7 km/h (3 Bft) W-SW 247 8,4 C 6,9 C
30.01.2013 04:06 9,1 C 96 % 1002,7 hPa 0,0 l/m 19,8 km/h (3 Bft) W-SW 247 8,5 C 6,3 C
30.01.2013 04:11 9,1 C 95 % 1002,8 hPa 0,0 l/m 25,6 km/h (4 Bft) W-SW 247 8,3 C 5,7 C
30.01.2013 04:16 9,2 C 95 % 1003,0 hPa 0,0 l/m 29,5 km/h (5 Bft) W-SW 247 8,4 C 5,6 C
30.01.2013 04:21 9,3 C 95 % 1002,9 hPa 0,0 l/m 25,9 km/h (4 Bft) W-SW 247 8,5 C 6,0 C
30.01.2013 04:26 9,3 C 95 % 1002,7 hPa 0,0 l/m 18,0 km/h (3 Bft) W-SW 247 8,5 C 6,7 C
30.01.2013 04:31 9,4 C 95 % 1002,7 hPa 0,0 l/m 27,4 km/h (4 Bft) W 270 8,6 C 6,0 C
30.01.2013 04:36 9,4 C 95 % 1002,6 hPa 0,0 l/m 11,9 km/h (2 Bft) W-SW 247 8,6 C 7,6 C
30.01.2013 04:41 9,5 C 95 % 1002,7 hPa 0,0 l/m 22,7 km/h (4 Bft) W 270 8,7 C 6,5 C
30.01.2013 04:46 9,5 C 94 % 1002,7 hPa 0,0 l/m 21,6 km/h (4 Bft) W-NW 292 8,6 C 6,6 C
30.01.2013 04:51 9,5 C 94 % 1002,6 hPa 0,0 l/m 23,0 km/h (4 Bft) W-SW 247 8,6 C 6,5 C
30.01.2013 04:56 9,5 C 94 % 1002,4 hPa 0,0 l/m 18,4 km/h (3 Bft) SW 225 8,6 C 6,9 C
30.01.2013 05:01 9,5 C 94 % 1002,6 hPa 0,0 l/m 17,3 km/h (3 Bft) W 270 8,6 C 7,0 C
30.01.2013 05:06 9,5 C 94 % 1002,6 hPa 0,0 l/m 27,0 km/h (4 Bft) W-SW 247 8,6 C 6,1 C
30.01.2013 05:11 9,5 C 94 % 1002,4 hPa 0,0 l/m 11,2 km/h (2 Bft) W-SW 247 8,6 C 7,8 C
30.01.2013 05:16 9,5 C 93 % 1002,5 hPa 0,0 l/m 22,0 km/h (4 Bft) W 270 8,4 C 6,6 C
30.01.2013 05:21 9,4 C 93 % 1002,6 hPa 0,0 l/m 22,0 km/h (4 Bft) W-SW 247 8,3 C 6,4 C
30.01.2013 05:26 9,4 C 93 % 1002,5 hPa 0,0 l/m 14,8 km/h (3 Bft) W-SW 247 8,3 C 7,2 C
30.01.2013 05:31 9,3 C 93 % 1002,4 hPa 0,0 l/m 9,4 km/h (2 Bft) SW 225 8,2 C 7,9 C
30.01.2013 05:36 9,3 C 93 % 1002,6 hPa 0,0 l/m 10,4 km/h (2 Bft) SW 225 8,2 C 7,7 C
30.01.2013 05:41 9,3 C 93 % 1002,5 hPa 0,0 l/m 9,7 km/h (2 Bft) W-SW 247 8,2 C 7,8 C
30.01.2013 05:46 9,3 C 93 % 1002,5 hPa 0,0 l/m 27,7 km/h (4 Bft) W-SW 247 8,2 C 5,8 C
30.01.2013 05:51 9,4 C 93 % 1002,5 hPa 0,0 l/m 12,2 km/h (2 Bft) W-SW 247 8,3 C 7,6 C
30.01.2013 05:56 9,4 C 93 % 1002,3 hPa 0,0 l/m 19,1 km/h (3 Bft) W-SW 247 8,3 C 6,7 C
30.01.2013 06:01 9,5 C 92 % 1002,4 hPa 0,0 l/m 15,8 km/h (3 Bft) SW 225 8,3 C 7,2 C
30.01.2013 06:06 9,5 C 92 % 1002,5 hPa 0,0 l/m 18,4 km/h (3 Bft) W-SW 247 8,3 C 6,9 C
30.01.2013 06:11 9,6 C 92 % 1002,4 hPa 0,0 l/m 24,5 km/h (4 Bft) W 270 8,4 C 6,5 C
30.01.2013 06:16 9,6 C 92 % 1002,4 hPa 0,0 l/m 13,3 km/h (3 Bft) W-SW 247 8,4 C 7,6 C
30.01.2013 06:21 9,5 C 92 % 1002,3 hPa 0,0 l/m 13,7 km/h (3 Bft) W-SW 247 8,3 C 7,5 C
30.01.2013 06:26 9,6 C 92 % 1002,3 hPa 0,0 l/m 18,7 km/h (3 Bft) W-SW 247 8,4 C 7,0 C
30.01.2013 06:31 9,6 C 92 % 1002,4 hPa 0,0 l/m 10,1 km/h (2 Bft) W-SW 247 8,4 C 8,1 C
30.01.2013 06:36 9,6 C 92 % 1002,2 hPa 0,0 l/m 29,5 km/h (5 Bft) W 270 8,4 C 6,1 C
30.01.2013 06:41 9,6 C 92 % 1002,2 hPa 0,0 l/m 18,0 km/h (3 Bft) W 270 8,4 C 7,1 C
30.01.2013 06:46 9,6 C 92 % 1002,1 hPa 0,0 l/m 10,4 km/h (2 Bft) W 270 8,4 C 8,1 C
30.01.2013 06:51 9,6 C 92 % 1002,2 hPa 0,0 l/m 18,0 km/h (3 Bft) SW 225 8,4 C 7,1 C
30.01.2013 06:56 9,6 C 91 % 1002,1 hPa 0,0 l/m 13,7 km/h (3 Bft) W-SW 247 8,2 C 7,6 C
30.01.2013 07:01 9,6 C 91 % 1001,9 hPa 0,0 l/m 17,3 km/h (3 Bft) S-SW 202 8,2 C 7,2 C
30.01.2013 07:06 9,7 C 91 % 1002,0 hPa 0,0 l/m 12,2 km/h (2 Bft) W-SW 247 8,3 C 7,9 C
30.01.2013 07:11 9,8 C 91 % 1001,9 hPa 0,0 l/m 12,2 km/h (2 Bft) W 270 8,4 C 8,0 C
30.01.2013 07:16 9,8 C 91 % 1001,9 hPa 0,0 l/m 23,0 km/h (4 Bft) SW 225 8,4 C 6,9 C
30.01.2013 07:21 9,9 C 90 % 1001,7 hPa 0,0 l/m 25,2 km/h (4 Bft) W-SW 247 8,3 C 6,8 C
30.01.2013 07:26 9,9 C 90 % 1001,8 hPa 0,0 l/m 20,5 km/h (4 Bft) W-SW 247 8,3 C 7,2 C
30.01.2013 07:31 9,9 C 90 % 1001,8 hPa 0,0 l/m 14,8 km/h (3 Bft) S-SW 202 8,3 C 7,8 C
30.01.2013 07:36 9,9 C 90 % 1001,7 hPa 0,0 l/m 10,8 km/h (2 Bft) W-SW 247 8,3 C 8,4 C
30.01.2013 07:41 9,9 C 90 % 1001,6 hPa 0,0 l/m 23,0 km/h (4 Bft) W-SW 247 8,3 C 7,0 C
30.01.2013 07:46 9,9 C 90 % 1001,6 hPa 0,0 l/m 13,0 km/h (3 Bft) W 270 8,3 C 8,1 C
30.01.2013 07:51 9,9 C 90 % 1001,4 hPa 0,0 l/m 29,5 km/h (5 Bft) S-SW 202 8,3 C 6,5 C
30.01.2013 07:56 10,1 C 90 % 1001,6 hPa 0,0 l/m 10,4 km/h (2 Bft) SW 225 8,5 C 10,1 C
30.01.2013 08:01 10,1 C 90 % 1001,4 hPa 0,0 l/m 10,8 km/h (2 Bft) SW 225 8,5 C 10,1 C
30.01.2013 08:06 10,1 C 90 % 1001,4 hPa 0,0 l/m 13,0 km/h (3 Bft) W-SW 247 8,5 C 10,1 C
30.01.2013 08:11 10,1 C 90 % 1001,2 hPa 0,0 l/m 23,0 km/h (4 Bft) W 270 8,5 C 10,1 C
30.01.2013 08:16 10,1 C 90 % 1001,2 hPa 0,0 l/m 20,5 km/h (4 Bft) W 270 8,5 C 10,1 C
30.01.2013 08:21 10,4 C 89 % 1001,1 hPa 0,0 l/m 24,8 km/h (4 Bft) W-SW 247 8,7 C 10,4 C
30.01.2013 08:26 10,4 C 89 % 1001,1 hPa 0,0 l/m 22,7 km/h (4 Bft) S-SW 202 8,7 C 10,4 C
30.01.2013 08:31 10,4 C 88 % 1001,1 hPa 0,0 l/m 29,5 km/h (5 Bft) W-SW 247 8,5 C 10,4 C
30.01.2013 08:36 10,3 C 88 % 1001,0 hPa 0,0 l/m 16,6 km/h (3 Bft) W 270 8,4 C 10,3 C
30.01.2013 08:41 10,3 C 88 % 1001,1 hPa 0,0 l/m 19,4 km/h (3 Bft) W-SW 247 8,4 C 10,3 C
30.01.2013 08:46 10,4 C 88 % 1000,8 hPa 0,0 l/m 14,8 km/h (3 Bft) W-SW 247 8,5 C 10,4 C
30.01.2013 08:51 10,4 C 88 % 1000,9 hPa 0,0 l/m 14,4 km/h (3 Bft) SW 225 8,5 C 10,4 C
30.01.2013 08:56 10,4 C 88 % 1000,8 hPa 0,0 l/m 14,8 km/h (3 Bft) W 270 8,5 C 10,4 C
30.01.2013 09:01 10,4 C 88 % 1000,8 hPa 0,0 l/m 13,0 km/h (3 Bft) SW 225 8,5 C 10,4 C
30.01.2013 09:06 10,5 C 88 % 1000,6 hPa 0,0 l/m 14,8 km/h (3 Bft) W-SW 247 8,6 C 10,5 C
30.01.2013 09:11 10,5 C 87 % 1000,6 hPa 0,0 l/m 25,2 km/h (4 Bft) W-NW 292 8,4 C 10,5 C
30.01.2013 09:16 10,6 C 87 % 1000,7 hPa 0,0 l/m 8,6 km/h (2 Bft) S-SW 202 8,5 C 10,6 C
30.01.2013 09:21 10,6 C 87 % 1000,5 hPa 0,0 l/m 16,9 km/h (3 Bft) W 270 8,5 C 10,6 C
30.01.2013 09:26 10,7 C 87 % 1000,5 hPa 0,0 l/m 16,6 km/h (3 Bft) SW 225 8,6 C 10,7 C
30.01.2013 09:31 10,7 C 87 % 1000,5 hPa 0,0 l/m 17,6 km/h (3 Bft) W 270 8,6 C 10,7 C
30.01.2013 09:36 10,7 C 87 % 1000,8 hPa 0,0 l/m 12,2 km/h (2 Bft) W 270 8,6 C 10,7 C
30.01.2013 09:41 10,7 C 86 % 1000,6 hPa 0,0 l/m 13,3 km/h (3 Bft) SW 225 8,5 C 10,7 C
30.01.2013 09:46 10,7 C 86 % 1000,5 hPa 0,0 l/m 22,7 km/h (4 Bft) W-SW 247 8,5 C 10,7 C
30.01.2013 09:51 10,8 C 86 % 1000,5 hPa 0,0 l/m 34,6 km/h (5 Bft) W-SW 247 8,6 C 10,8 C
30.01.2013 09:56 10,8 C 86 % 1000,6 hPa 0,0 l/m 15,5 km/h (3 Bft) SW 225 8,6 C 10,8 C
30.01.2013 10:01 10,8 C 86 % 1000,5 hPa 0,0 l/m 16,6 km/h (3 Bft) SW 225 8,6 C 10,8 C
30.01.2013 10:06 10,9 C 86 % 1000,4 hPa 0,0 l/m 11,5 km/h (2 Bft) SW 225 8,7 C 10,9 C
30.01.2013 10:11 10,9 C 86 % 1000,4 hPa 0,0 l/m 16,6 km/h (3 Bft) W 270 8,7 C 10,9 C
30.01.2013 10:16 11,0 C 86 % 1000,4 hPa 0,0 l/m 14,8 km/h (3 Bft) S-SO 157 8,7 C 11,0 C
30.01.2013 10:21 11,1 C 86 % 1000,4 hPa 0,0 l/m 9,0 km/h (2 Bft) W-SW 247 8,8 C 11,1 C
30.01.2013 10:26 11,1 C 85 % 1000,5 hPa 0,0 l/m 19,1 km/h (3 Bft) W-SW 247 8,7 C 11,1 C
30.01.2013 10:31 11,3 C 85 % 1000,0 hPa 0,0 l/m 11,9 km/h (2 Bft) W-SW 247 8,9 C 11,3 C
30.01.2013 10:36 11,4 C 85 % 1000,1 hPa 0,0 l/m 29,2 km/h (5 Bft) W-SW 247 9,0 C 11,4 C
30.01.2013 10:41 11,4 C 84 % 1000,1 hPa 0,0 l/m 16,9 km/h (3 Bft) W-SW 247 8,8 C 11,4 C
30.01.2013 10:46 11,5 C 84 % 1000,0 hPa 0,0 l/m 23,0 km/h (4 Bft) SW 225 8,9 C 11,5 C
30.01.2013 10:51 11,6 C 84 % 999,9 hPa 0,0 l/m 17,3 km/h (3 Bft) W-SW 247 9,0 C 11,6 C
30.01.2013 10:56 11,6 C 84 % 1000,0 hPa 0,0 l/m 23,8 km/h (4 Bft) W-SW 247 9,0 C 11,6 C
30.01.2013 11:01 11,6 C 84 % 999,6 hPa 0,0 l/m 24,1 km/h (4 Bft) S-SW 202 9,0 C 11,6 C
30.01.2013 11:06 11,8 C 83 % 999,7 hPa 0,0 l/m 18,0 km/h (3 Bft) W-SW 247 9,0 C 11,8 C
30.01.2013 11:11 11,8 C 84 % 999,7 hPa 0,0 l/m 20,5 km/h (4 Bft) SW 225 9,2 C 11,8 C
30.01.2013 11:16 11,8 C 84 % 999,5 hPa 0,0 l/m 14,4 km/h (3 Bft) S-SW 202 9,2 C 11,8 C
30.01.2013 11:21 11,9 C 84 % 999,4 hPa 0,0 l/m 28,8 km/h (4 Bft) W-SW 247 9,3 C 11,9 C
30.01.2013 11:26 12,0 C 83 % 999,4 hPa 0,0 l/m 16,9 km/h (3 Bft) S-SW 202 9,2 C 12,0 C
30.01.2013 11:31 12,1 C 83 % 999,3 hPa 0,0 l/m 16,9 km/h (3 Bft) S-SW 202 9,3 C 12,1 C
30.01.2013 11:36 12,1 C 83 % 999,4 hPa 0,0 l/m 21,6 km/h (4 Bft) W 270 9,3 C 12,1 C
30.01.2013 11:41 12,1 C 83 % 999,0 hPa 0,0 l/m 28,8 km/h (4 Bft) W 270 9,3 C 12,1 C
30.01.2013 11:46 12,1 C 84 % 998,9 hPa 0,0 l/m 14,4 km/h (3 Bft) S-SW 202 9,5 C 12,1 C
30.01.2013 11:51 12,1 C 84 % 998,9 hPa 0,0 l/m 28,8 km/h (4 Bft) SW 225 9,5 C 12,1 C
30.01.2013 11:56 12,1 C 84 % 998,8 hPa 0,0 l/m 21,6 km/h (4 Bft) S 180 9,5 C 12,1 C
30.01.2013 12:01 12,1 C 84 % 998,8 hPa 0,0 l/m 24,5 km/h (4 Bft) SW 225 9,5 C 12,1 C
30.01.2013 12:06 12,1 C 84 % 998,6 hPa 0,5 l/m 32,4 km/h (5 Bft) W 270 9,5 C 12,1 C
30.01.2013 12:11 12,1 C 84 % 998,7 hPa 0,0 l/m 30,6 km/h (5 Bft) W-SW 247 9,5 C 12,1 C
30.01.2013 12:16 12,0 C 85 % 998,4 hPa 0,0 l/m 13,7 km/h (3 Bft) S 180 9,6 C 12,0 C
30.01.2013 12:21 12,1 C 85 % 998,4 hPa 0,0 l/m 26,3 km/h (4 Bft) W-SW 247 9,7 C 12,1 C
30.01.2013 12:26 12,1 C 85 % 998,4 hPa 0,0 l/m 34,9 km/h (5 Bft) W 270 9,7 C 12,1 C
30.01.2013 12:31 12,1 C 85 % 998,3 hPa 0,0 l/m 25,9 km/h (4 Bft) W 270 9,7 C 12,1 C
30.01.2013 12:36 11,9 C 86 % 998,9 hPa 0,0 l/m 22,3 km/h (4 Bft) NW 315 9,6 C 11,9 C
30.01.2013 12:41 11,5 C 83 % 1000,2 hPa 1,6 l/m 19,4 km/h (3 Bft) NW 315 8,7 C 11,5 C
30.01.2013 12:46 10,8 C 84 % 1000,3 hPa 0,0 l/m 16,6 km/h (3 Bft) W-NW 292 8,2 C 10,8 C
30.01.2013 12:51 10,2 C 85 % 1000,6 hPa 0,0 l/m 17,6 km/h (3 Bft) NW 315 7,8 C 10,2 C
30.01.2013 12:56 9,9 C 86 % 1000,5 hPa 0,5 l/m 5,8 km/h (2 Bft) W 270 7,7 C 9,4 C
30.01.2013 13:01 9,8 C 87 % 1000,5 hPa 0,0 l/m 16,2 km/h (3 Bft) NW 315 7,7 C 7,5 C
30.01.2013 13:06 9,5 C 88 % 1000,8 hPa 0,0 l/m 9,4 km/h (2 Bft) N 360 7,6 C 8,1 C
30.01.2013 13:11 9,3 C 88 % 1000,9 hPa 0,0 l/m 8,3 km/h (2 Bft) N 360 7,4 C 8,1 C
30.01.2013 13:16 9,0 C 87 % 1000,5 hPa 0,0 l/m 9,4 km/h (2 Bft) N-NO 22 7,0 C 7,5 C
30.01.2013 13:21 8,8 C 87 % 1000,6 hPa 0,0 l/m 5,0 km/h (1 Bft) N 360 6,8 C 8,4 C
30.01.2013 13:26 8,6 C 88 % 1000,4 hPa 0,0 l/m 4,0 km/h (1 Bft) N-NW 337 6,7 C 8,6 C
30.01.2013 13:31 8,4 C 88 % 1000,6 hPa 0,0 l/m 0,0 km/h (0 Bft) NW 315 6,5 C 8,4 C
30.01.2013 13:36 8,4 C 88 % 1000,5 hPa 0,0 l/m 2,9 km/h (1 Bft) NW 315 6,5 C 8,4 C
30.01.2013 13:41 8,4 C 88 % 1000,4 hPa 0,0 l/m 0,0 km/h (0 Bft) W-NW 292 6,5 C 8,4 C
30.01.2013 13:46 8,3 C 88 % 1000,4 hPa 0,5 l/m 0,0 km/h (0 Bft) W-NW 292 6,4 C 8,3 C
30.01.2013 13:51 8,3 C 89 % 1000,3 hPa 0,0 l/m 0,0 km/h (0 Bft) W-NW 292 6,6 C 8,3 C
30.01.2013 13:56 8,3 C 89 % 1000,2 hPa 0,0 l/m 1,4 km/h (1 Bft) W 270 6,6 C 8,3 C
30.01.2013 14:01 8,3 C 89 % 1000,4 hPa 0,0 l/m 4,0 km/h (1 Bft) W-SW 247 6,6 C 8,3 C
30.01.2013 14:06 8,3 C 89 % 1000,1 hPa 0,0 l/m 4,0 km/h (1 Bft) S-SW 202 6,6 C 8,3 C
30.01.2013 14:11 8,3 C 89 % 1000,2 hPa 0,0 l/m 2,5 km/h (1 Bft) S-SO 157 6,6 C 8,3 C
30.01.2013 14:16 8,2 C 90 % 1000,1 hPa 0,0 l/m 6,8 km/h (2 Bft) SW 225 6,7 C 7,2 C
30.01.2013 14:21 8,2 C 90 % 1000,5 hPa 0,0 l/m 10,1 km/h (2 Bft) W-SW 247 6,7 C 6,5 C
30.01.2013 14:26 8,1 C 90 % 1000,1 hPa 0,0 l/m 3,6 km/h (1 Bft) S-SW 202 6,6 C 8,1 C
30.01.2013 14:31 8,1 C 90 % 1000,2 hPa 0,0 l/m 4,7 km/h (1 Bft) SW 225 6,6 C 7,7 C
30.01.2013 14:36 8,2 C 90 % 1000,6 hPa 0,0 l/m 11,5 km/h (2 Bft) W 270 6,7 C 6,2 C
30.01.2013 14:41 8,2 C 91 % 1000,6 hPa 0,0 l/m 7,6 km/h (2 Bft) W-SW 247 6,8 C 7,0 C
30.01.2013 14:46 8,3 C 91 % 1000,4 hPa 0,0 l/m 7,2 km/h (2 Bft) W-SW 247 6,9 C 7,2 C
30.01.2013 14:51 8,3 C 91 % 1000,6 hPa 0,0 l/m 4,7 km/h (1 Bft) SW 225 6,9 C 7,9 C
30.01.2013 14:56 8,4 C 91 % 1000,6 hPa 0,0 l/m 5,8 km/h (2 Bft) SW 225 7,0 C 7,7 C
30.01.2013 15:01 8,4 C 91 % 1000,5 hPa 0,0 l/m 10,8 km/h (2 Bft) SW 225 7,0 C 6,6 C
30.01.2013 15:06 8,4 C 91 % 1000,5 hPa 0,0 l/m 16,9 km/h (3 Bft) W 270 7,0 C 5,7 C
30.01.2013 15:11 8,4 C 91 % 1000,5 hPa 0,0 l/m 6,1 km/h (2 Bft) SW 225 7,0 C 7,6 C
30.01.2013 15:16 8,3 C 91 % 1000,5 hPa 0,0 l/m 6,1 km/h (2 Bft) W-SW 247 6,9 C 7,5 C
30.01.2013 15:21 8,3 C 91 % 1000,5 hPa 0,0 l/m 7,2 km/h (2 Bft) SW 225 6,9 C 7,2 C
30.01.2013 15:26 8,4 C 91 % 1000,3 hPa 0,0 l/m 6,1 km/h (2 Bft) W 270 7,0 C 7,6 C
30.01.2013 15:31 8,5 C 91 % 999,8 hPa 0,0 l/m 8,3 km/h (2 Bft) W-SW 247 7,1 C 7,2 C
30.01.2013 15:36 8,5 C 91 % 999,7 hPa 0,0 l/m 4,7 km/h (1 Bft) SW 225 7,1 C 8,2 C
30.01.2013 15:41 8,5 C 91 % 1000,3 hPa 0,0 l/m 4,3 km/h (1 Bft) SW 225 7,1 C 8,5 C
30.01.2013 15:46 8,5 C 91 % 1000,4 hPa 0,0 l/m 2,9 km/h (1 Bft) W-SW 247 7,1 C 8,5 C
30.01.2013 15:51 8,5 C 91 % 1000,4 hPa 0,0 l/m 11,9 km/h (2 Bft) W-SW 247 7,1 C 6,5 C
30.01.2013 15:56 8,5 C 90 % 1000,5 hPa 0,0 l/m 6,1 km/h (2 Bft) S-SW 202 7,0 C 7,7 C
30.01.2013 16:01 8,4 C 90 % 1000,6 hPa 0,0 l/m 4,0 km/h (1 Bft) W 270 6,9 C 8,4 C
30.01.2013 16:06 8,3 C 90 % 1000,5 hPa 0,0 l/m 10,1 km/h (2 Bft) W-SW 247 6,8 C 6,6 C
30.01.2013 16:11 8,1 C 90 % 1000,5 hPa 0,0 l/m 6,1 km/h (2 Bft) S-SW 202 6,6 C 7,3 C
30.01.2013 16:16 8,1 C 90 % 1000,4 hPa 0,0 l/m 4,0 km/h (1 Bft) SW 225 6,6 C 8,1 C
30.01.2013 16:21 7,9 C 90 % 1000,4 hPa 0,0 l/m 13,3 km/h (3 Bft) W-SW 247 6,4 C 5,6 C
30.01.2013 16:26 7,8 C 91 % 1000,5 hPa 0,0 l/m 4,0 km/h (1 Bft) SW 225 6,4 C 7,8 C
30.01.2013 16:31 7,8 C 91 % 1000,6 hPa 0,0 l/m 2,9 km/h (1 Bft) SW 225 6,4 C 7,8 C
30.01.2013 16:36 7,8 C 91 % 1000,6 hPa 0,0 l/m 9,4 km/h (2 Bft) W 270 6,4 C 6,1 C
30.01.2013 16:41 7,8 C 91 % 1000,6 hPa 0,0 l/m 5,0 km/h (1 Bft) W-SW 247 6,4 C 7,3 C
30.01.2013 16:46 7,8 C 91 % 1000,5 hPa 0,0 l/m 10,4 km/h (2 Bft) W-SW 247 6,4 C 5,9 C
30.01.2013 16:51 7,8 C 91 % 1000,4 hPa 0,0 l/m 4,7 km/h (1 Bft) W-SW 247 6,4 C 7,4 C
30.01.2013 16:56 7,8 C 91 % 1000,7 hPa 0,0 l/m 14,4 km/h (3 Bft) W-SW 247 6,4 C 5,3 C
30.01.2013 17:01 7,8 C 91 % 1000,8 hPa 0,0 l/m 11,5 km/h (2 Bft) W-SW 247 6,4 C 5,7 C
30.01.2013 17:06 7,8 C 91 % 1000,7 hPa 0,0 l/m 9,7 km/h (2 Bft) W-SW 247 6,4 C 6,1 C
30.01.2013 17:11 7,9 C 91 % 1000,9 hPa 0,0 l/m 13,7 km/h (3 Bft) W-SW 247 6,5 C 5,5 C
30.01.2013 17:16 7,9 C 91 % 1000,9 hPa 0,0 l/m 14,8 km/h (3 Bft) W 270 6,5 C 5,4 C
30.01.2013 17:21 7,9 C 91 % 1000,9 hPa 0,0 l/m 8,6 km/h (2 Bft) W-SW 247 6,5 C 6,4 C
30.01.2013 17:26 8,0 C 91 % 1000,9 hPa 0,0 l/m 21,6 km/h (4 Bft) W-SW 247 6,6 C 4,7 C
30.01.2013 17:31 8,1 C 91 % 1000,8 hPa 0,0 l/m 13,3 km/h (3 Bft) W-SW 247 6,7 C 5,8 C
30.01.2013 17:36 8,1 C 90 % 1001,0 hPa 0,0 l/m 17,3 km/h (3 Bft) W 270 6,6 C 5,3 C
30.01.2013 17:41 8,1 C 90 % 1001,1 hPa 0,0 l/m 14,8 km/h (3 Bft) W 270 6,6 C 5,6 C
30.01.2013 17:46 8,1 C 89 % 1001,2 hPa 0,0 l/m 14,8 km/h (3 Bft) W 270 6,4 C 5,6 C
30.01.2013 17:51 7,9 C 88 % 1001,2 hPa 0,0 l/m 16,6 km/h (3 Bft) W 270 6,0 C 5,1 C
30.01.2013 17:56 7,9 C 88 % 1001,1 hPa 0,0 l/m 18,4 km/h (3 Bft) W-SW 247 6,0 C 4,9 C
30.01.2013 18:01 7,8 C 88 % 1001,2 hPa 0,0 l/m 21,6 km/h (4 Bft) W-SW 247 5,9 C 4,4 C
30.01.2013 18:06 7,6 C 88 % 1001,3 hPa 0,0 l/m 19,1 km/h (3 Bft) W 270 5,7 C 4,4 C
30.01.2013 18:11 7,6 C 88 % 1001,2 hPa 0,0 l/m 13,7 km/h (3 Bft) W 270 5,7 C 5,1 C
30.01.2013 18:16 7,7 C 87 % 1001,3 hPa 0,0 l/m 16,9 km/h (3 Bft) W 270 5,7 C 4,8 C
30.01.2013 18:21 7,8 C 87 % 1001,5 hPa 0,0 l/m 19,1 km/h (3 Bft) SW 225 5,8 C 4,7 C
30.01.2013 18:26 7,8 C 88 % 1001,3 hPa 0,0 l/m 30,2 km/h (5 Bft) W-SW 247 5,9 C 3,7 C
30.01.2013 18:31 7,8 C 87 % 1001,3 hPa 0,0 l/m 30,6 km/h (5 Bft) W-SW 247 5,8 C 3,7 C
30.01.2013 18:36 7,8 C 86 % 1001,5 hPa 0,0 l/m 11,9 km/h (2 Bft) W-NW 292 5,6 C 5,7 C
30.01.2013 18:41 7,6 C 86 % 1001,6 hPa 0,0 l/m 20,5 km/h (4 Bft) W-SW 247 5,4 C 4,3 C
30.01.2013 18:46 7,6 C 85 % 1001,5 hPa 0,0 l/m 30,2 km/h (5 Bft) W 270 5,2 C 3,4 C
30.01.2013 18:51 7,5 C 84 % 1001,6 hPa 0,0 l/m 12,6 km/h (3 Bft) W 270 5,0 C 5,2 C
30.01.2013 18:56 7,4 C 83 % 1001,8 hPa 0,0 l/m 6,8 km/h (2 Bft) W-NW 292 4,7 C 6,3 C
30.01.2013 19:01 7,4 C 83 % 1001,8 hPa 0,0 l/m 17,6 km/h (3 Bft) W 270 4,7 C 4,4 C
30.01.2013 19:06 7,5 C 83 % 1001,9 hPa 0,0 l/m 17,3 km/h (3 Bft) W 270 4,8 C 4,5 C
30.01.2013 19:11 7,4 C 83 % 1002,2 hPa 0,0 l/m 8,3 km/h (2 Bft) W-NW 292 4,7 C 5,9 C
30.01.2013 19:16 7,4 C 83 % 1002,2 hPa 0,0 l/m 10,4 km/h (2 Bft) W 270 4,7 C 5,4 C
30.01.2013 19:21 7,4 C 83 % 1002,1 hPa 0,0 l/m 18,0 km/h (3 Bft) W-SW 247 4,7 C 4,3 C
30.01.2013 19:26 7,3 C 84 % 1002,2 hPa 0,0 l/m 31,7 km/h (5 Bft) W-SW 247 4,8 C 2,9 C
30.01.2013 19:31 7,3 C 84 % 1002,2 hPa 0,0 l/m 15,8 km/h (3 Bft) W-NW 292 4,8 C 4,5 C
30.01.2013 19:36 7,3 C 84 % 1002,1 hPa 0,0 l/m 8,3 km/h (2 Bft) SW 225 4,8 C 5,8 C
30.01.2013 19:41 7,2 C 84 % 1002,2 hPa 0,0 l/m 9,4 km/h (2 Bft) W-SW 247 4,7 C 5,4 C
30.01.2013 19:46 7,1 C 85 % 1002,4 hPa 0,0 l/m 10,1 km/h (2 Bft) SW 225 4,8 C 5,1 C
30.01.2013 19:51 7,0 C 85 % 1002,7 hPa 0,0 l/m 14,8 km/h (3 Bft) W-SW 247 4,7 C 4,2 C
30.01.2013 19:56 6,9 C 86 % 1002,6 hPa 0,0 l/m 10,8 km/h (2 Bft) NW 315 4,7 C 4,8 C
30.01.2013 20:01 6,9 C 86 % 1002,6 hPa 0,0 l/m 24,5 km/h (4 Bft) W-SW 247 4,7 C 3,0 C
30.01.2013 20:06 6,9 C 87 % 1002,8 hPa 0,0 l/m 21,6 km/h (4 Bft) W-SW 247 4,9 C 3,3 C
30.01.2013 20:11 6,9 C 87 % 1002,7 hPa 0,0 l/m 19,4 km/h (3 Bft) W 270 4,9 C 3,5 C
30.01.2013 20:16 6,8 C 87 % 1002,7 hPa 0,0 l/m 5,4 km/h (1 Bft) W 270 4,8 C 6,0 C
30.01.2013 20:21 6,7 C 87 % 1002,9 hPa 0,0 l/m 6,1 km/h (2 Bft) W-NW 292 4,7 C 5,6 C
30.01.2013 20:26 6,6 C 87 % 1002,8 hPa 0,0 l/m 14,4 km/h (3 Bft) W 270 4,6 C 3,8 C
30.01.2013 20:31 6,5 C 87 % 1002,8 hPa 0,0 l/m 15,8 km/h (3 Bft) W-SW 247 4,5 C 3,5 C
30.01.2013 20:36 6,4 C 87 % 1003,0 hPa 0,0 l/m 13,0 km/h (3 Bft) W-SW 247 4,4 C 3,8 C
30.01.2013 20:41 6,4 C 87 % 1003,1 hPa 0,0 l/m 19,1 km/h (3 Bft) W-SW 247 4,4 C 2,9 C
30.01.2013 20:46 6,3 C 87 % 1003,1 hPa 0,0 l/m 27,7 km/h (4 Bft) W 270 4,3 C 1,9 C
30.01.2013 20:51 6,3 C 87 % 1003,1 hPa 0,0 l/m 29,9 km/h (5 Bft) W-SW 247 4,3 C 1,8 C
30.01.2013 20:56 6,2 C 87 % 1003,1 hPa 0,0 l/m 22,7 km/h (4 Bft) W 270 4,2 C 2,3 C
30.01.2013 21:01 6,2 C 87 % 1003,1 hPa 0,0 l/m 16,2 km/h (3 Bft) W-SW 247 4,2 C 3,1 C
30.01.2013 21:06 6,1 C 87 % 1003,1 hPa 0,0 l/m 10,8 km/h (2 Bft) S-SW 202 4,1 C 3,8 C
30.01.2013 21:11 6,0 C 87 % 1003,0 hPa 0,0 l/m 12,6 km/h (3 Bft) W-SW 247 4,0 C 3,4 C
30.01.2013 21:16 5,9 C 87 % 1003,2 hPa 0,0 l/m 11,2 km/h (2 Bft) W-SW 247 3,9 C 3,5 C
30.01.2013 21:21 5,9 C 87 % 1003,0 hPa 0,0 l/m 23,0 km/h (4 Bft) W-SW 247 3,9 C 1,9 C
30.01.2013 21:26 5,9 C 87 % 1002,8 hPa 0,0 l/m 23,0 km/h (4 Bft) W-SW 247 3,9 C 1,9 C
30.01.2013 21:31 5,9 C 87 % 1002,8 hPa 0,0 l/m 20,5 km/h (4 Bft) W-SW 247 3,9 C 2,1 C
30.01.2013 21:36 5,8 C 88 % 1003,0 hPa 0,0 l/m 19,8 km/h (3 Bft) W-SW 247 4,0 C 2,1 C
30.01.2013 21:41 5,8 C 88 % 1002,9 hPa 0,0 l/m 31,0 km/h (5 Bft) W 270 4,0 C 1,0 C
30.01.2013 21:46 5,9 C 87 % 1002,7 hPa 0,0 l/m 22,0 km/h (4 Bft) W-SW 247 3,9 C 2,0 C
30.01.2013 21:51 5,9 C 87 % 1002,8 hPa 0,0 l/m 23,8 km/h (4 Bft) W-SW 247 3,9 C 1,8 C
30.01.2013 21:56 5,9 C 87 % 1002,8 hPa 0,0 l/m 28,4 km/h (4 Bft) W 270 3,9 C 1,4 C
30.01.2013 22:01 5,9 C 87 % 1002,7 hPa 0,0 l/m 22,3 km/h (4 Bft) W-SW 247 3,9 C 1,9 C
30.01.2013 22:06 5,9 C 87 % 1002,8 hPa 0,0 l/m 30,2 km/h (5 Bft) W-SW 247 3,9 C 1,2 C
30.01.2013 22:11 5,9 C 87 % 1002,6 hPa 0,0 l/m 30,6 km/h (5 Bft) W-SW 247 3,9 C 1,2 C
30.01.2013 22:16 5,9 C 87 % 1002,7 hPa 0,0 l/m 23,0 km/h (4 Bft) W 270 3,9 C 1,9 C
30.01.2013 22:21 6,0 C 86 % 1002,7 hPa 0,0 l/m 23,0 km/h (4 Bft) SW 225 3,8 C 2,0 C
30.01.2013 22:26 6,1 C 86 % 1002,7 hPa 0,0 l/m 14,8 km/h (3 Bft) S-SW 202 3,9 C 3,1 C
30.01.2013 22:31 6,1 C 86 % 1002,7 hPa 0,0 l/m 15,5 km/h (3 Bft) W-SW 247 3,9 C 3,0 C
30.01.2013 22:36 6,1 C 85 % 1002,7 hPa 0,0 l/m 14,4 km/h (3 Bft) W 270 3,8 C 3,2 C
30.01.2013 22:41 6,2 C 85 % 1002,7 hPa 0,0 l/m 24,1 km/h (4 Bft) W 270 3,9 C 2,1 C
30.01.2013 22:46 6,2 C 85 % 1002,6 hPa 0,0 l/m 11,5 km/h (2 Bft) W 270 3,9 C 3,8 C
30.01.2013 22:51 6,2 C 84 % 1002,7 hPa 0,0 l/m 19,4 km/h (3 Bft) W 270 3,7 C 2,7 C
30.01.2013 22:56 6,3 C 84 % 1002,8 hPa 0,0 l/m 44,6 km/h (6 Bft) W-SW 247 3,8 C 0,7 C
30.01.2013 23:01 6,4 C 83 % 1002,9 hPa 0,0 l/m 27,4 km/h (4 Bft) W 270 3,7 C 2,1 C
30.01.2013 23:06 6,5 C 83 % 1002,8 hPa 0,0 l/m 28,8 km/h (4 Bft) W-SW 247 3,8 C 2,1 C
30.01.2013 23:11 6,6 C 82 % 1002,7 hPa 0,0 l/m 27,4 km/h (4 Bft) W 270 3,8 C 2,4 C
30.01.2013 23:16 6,6 C 82 % 1002,8 hPa 0,0 l/m 23,4 km/h (4 Bft) W-SW 247 3,8 C 2,7 C
30.01.2013 23:21 6,7 C 81 % 1002,9 hPa 0,0 l/m 10,8 km/h (2 Bft) W 270 3,7 C 4,5 C
30.01.2013 23:26 6,8 C 81 % 1002,9 hPa 0,0 l/m 32,8 km/h (5 Bft) W-SW 247 3,8 C 2,2 C
30.01.2013 23:31 6,9 C 81 % 1002,6 hPa 0,0 l/m 16,6 km/h (3 Bft) NW 315 3,9 C 3,9 C
30.01.2013 23:36 6,9 C 81 % 1002,5 hPa 0,0 l/m 23,4 km/h (4 Bft) NW 315 3,9 C 3,1 C
30.01.2013 23:41 6,9 C 80 % 1002,5 hPa 0,0 l/m 36,0 km/h (5 Bft) W-SW 247 3,7 C 2,1 C
30.01.2013 23:46 7,0 C 79 % 1002,6 hPa 0,0 l/m 28,1 km/h (4 Bft) W 270 3,6 C 2,8 C
30.01.2013 23:51 7,0 C 79 % 1002,8 hPa 0,0 l/m 28,4 km/h (4 Bft) W 270 3,6 C 2,8 C
30.01.2013 23:56 7,1 C 79 % 1002,9 hPa 0,0 l/m 29,2 km/h (5 Bft) SW 225 3,7 C 2,9 C
_ Min-Zeit 00:01 23:46 12:31 - 13:31 - - 23:46 22:56
Minimum _ 5,1 C 79 % 998,3 hPa - 0,0 km/h (0 Bft) - - 3,6 C 0,7 C
_ Max-Zeit 11:31 03:51 00:01 12:41 22:56 - - 12:21 11:31
Maximum _ 12,1 C 96 % 1004,9 hPa 1,6 l/m 44,6 km/h
W-SW (6 Bft)
- - 9,7 C 12,1 C
Durchschnitt _ 8,4 C 89 % 1001,7 hPa #6,2 l/m 15,8 km/h (3 Bft) W-SW - 6,7 C 6,6 C
(c) by David Heller